Westerville, Ohio
Current Conditions -  °F | °C
As of 4:53 PM on Monday 20 Oct 2014 (Local Time) from KOSU Reporting Station
Light Rain Light Rain  
Wind Chill: 12°   Ceiling: 3400
Heat Index: 12°   Visibility: 3mi
Dew Point:   Wind: 3mph
Humidity: 86%   Direction: 300°WNW
Pressure: 29.87"   Gusts: NA
Location:  40.13°N, 82.93°W
Report Text: KOSU 202053Z 30003KT 3SM -RA BR BKN034 BKN042 OVC049 12/09 A2987 RMK AO2 SLP118 P0012 60014 T01170094 53003
Loading
Personal Weather Stations






























Interactive Weather Map
Tropical Storm Tracking
New forecast layout! Learn more

10-Day Weather Forecast

Advertisements
Track Severe Weather on mobile